Time;durP1;ratioP1;P1;durP2;ratioP2;P2;SDS_P1;SDS_P2;PMS_P1;PMS_P2;Temp;Humidity;BMP_temperature;BMP_pressure;BME280_temperature;BME280_humidity;BME280_pressure;Samples;Min_cycle;Max_cycle;Signal;HPM_P1;HPM_P2
2021/11/08 00:01:11;;;;;;;2.40;1.80;;;;;;;8.12;100.00;98760.31;5007007;28;20061;-56
2021/11/08 00:03:41;;;;;;;2.30;2.10;;;;;;;8.11;100.00;98756.06;5004993;28;20038;-57
2021/11/08 00:06:07;;;;;;;2.10;1.53;;;;;;;8.09;100.00;98757.78;5000732;28;20053;-53
2021/11/08 00:08:33;;;;;;;2.83;2.43;;;;;;;8.17;100.00;98753.47;5002181;28;20420;-54
2021/11/08 00:10:59;;;;;;;2.57;1.40;;;;;;;8.16;100.00;98754.31;5000752;28;20046;-55
2021/11/08 00:13:26;;;;;;;2.07;1.47;;;;;;;8.20;100.00;98762.81;5000295;28;20034;-57
2021/11/08 00:16:10;;;;;;;2.00;1.43;;;;;;;8.20;100.00;98762.81;5005455;28;20483;-53
2021/11/08 00:18:59;;;;;;;1.70;1.58;;;;;;;8.19;100.00;98767.06;5003979;28;20395;-54
2021/11/08 00:21:29;;;;;;;1.53;1.30;;;;;;;8.19;100.00;98769.63;5010475;28;20064;-56
2021/11/08 00:23:55;;;;;;;4.83;2.70;;;;;;;8.19;100.00;98769.63;5006326;28;20052;-55
2021/11/08 00:26:20;;;;;;;1.73;1.63;;;;;;;8.20;100.00;98778.97;5014009;28;20038;-55
2021/11/08 00:28:45;;;;;;;1.53;1.43;;;;;;;8.18;100.00;98783.28;5005305;28;20463;-54
2021/11/08 00:31:11;;;;;;;1.63;1.30;;;;;;;8.21;100.00;98778.13;5014109;28;20037;-54
2021/11/08 00:33:39;;;;;;;2.03;1.93;;;;;;;8.24;100.00;98783.22;5005731;28;20033;-54
2021/11/08 00:36:04;;;;;;;3.23;1.40;;;;;;;8.21;100.00;98779.84;5013531;28;20042;-57
2021/11/08 00:38:31;;;;;;;1.53;1.40;;;;;;;8.22;100.00;98792.59;5008026;28;20033;-54
2021/11/08 00:40:57;;;;;;;1.20;1.10;;;;;;;8.24;100.00;98795.97;5008974;28;20046;-58
2021/11/08 00:43:23;;;;;;;1.20;1.20;;;;;;;8.30;100.00;98792.56;5008574;28;20246;-56
2021/11/08 00:45:49;;;;;;;1.40;1.13;;;;;;;8.33;100.00;98802.75;5010951;28;20174;-55
2021/11/08 00:48:17;;;;;;;1.30;1.20;;;;;;;8.39;100.00;98800.16;5015969;28;20033;-56
2021/11/08 00:50:43;;;;;;;1.20;1.10;;;;;;;8.42;100.00;98787.38;5012735;28;20034;-55
2021/11/08 00:53:09;;;;;;;3.20;1.57;;;;;;;8.37;100.00;98801.03;5016215;28;20064;-55
2021/11/08 00:55:37;;;;;;;1.60;1.50;;;;;;;8.40;100.00;98803.56;5021604;28;20446;-55
2021/11/08 00:58:03;;;;;;;1.30;1.17;;;;;;;8.37;100.00;98806.97;5015031;28;20056;-55
2021/11/08 01:00:31;;;;;;;3.87;2.00;;;;;;;8.43;100.00;98821.44;5015183;28;20394;-55
2021/11/08 01:03:00;;;;;;;3.93;2.70;;;;;;;8.49;100.00;98822.22;5009738;28;20092;-54
2021/11/08 01:05:26;;;;;;;1.90;1.80;;;;;;;8.45;100.00;98815.44;5009378;28;20117;-54
2021/11/08 01:07:53;;;;;;;3.37;2.30;;;;;;;8.38;100.00;98811.25;5012764;28;20112;-54
2021/11/08 01:10:19;;;;;;;4.47;2.43;;;;;;;8.37;100.00;98816.34;5010850;28;20042;-56
2021/11/08 01:12:45;;;;;;;2.53;2.17;;;;;;;8.30;100.00;98815.56;5013546;28;20336;-53
2021/11/08 01:15:11;;;;;;;2.80;2.40;;;;;;;8.30;100.00;98815.56;5010042;28;20040;-55
2021/11/08 01:17:38;;;;;;;2.87;2.60;;;;;;;8.35;100.00;98806.16;5015186;28;20394;-55
2021/11/08 01:20:06;;;;;;;3.23;2.77;;;;;;;8.31;100.00;98808.75;5012669;28;20042;-54
2021/11/08 01:22:32;;;;;;;4.20;2.77;;;;;;;8.36;100.00;98800.16;5019350;28;20104;-56
2021/11/08 01:24:58;;;;;;;3.87;2.60;;;;;;;8.43;100.00;98814.63;5012354;28;20588;-56
2021/11/08 01:27:35;;;;;;;2.97;2.67;;;;;;;8.44;100.00;98830.78;5016732;28;20495;-54
2021/11/08 01:30:04;;;;;;;4.10;2.83;;;;;;;8.51;100.00;98809.44;5009491;28;20048;-54
2021/11/08 01:32:30;;;;;;;3.30;2.30;;;;;;;8.52;100.00;98813.69;5016217;28;20032;-54
2021/11/08 01:34:55;;;;;;;3.33;2.33;;;;;;;8.59;100.00;98823.00;5013978;28;20030;-55
2021/11/08 01:37:22;;;;;;;2.90;2.23;;;;;;;8.53;100.00;98812.84;5016514;28;20530;-54
2021/11/08 01:39:47;;;;;;;3.10;2.63;;;;;;;8.52;100.00;98814.56;5011012;28;20039;-57
2021/11/08 01:42:15;;;;;;;3.17;2.53;;;;;;;8.62;100.00;98818.69;5015881;28;20086;-55
2021/11/08 01:44:41;;;;;;;3.47;2.97;;;;;;;8.66;100.00;98822.06;5008356;28;20034;-57
2021/11/08 01:47:08;;;;;;;3.77;2.40;;;;;;;8.64;100.00;98819.56;5015340;28;20043;-54
2021/11/08 01:49:34;;;;;;;4.00;3.17;;;;;;;8.61;100.00;98837.44;5009196;28;20025;-57
2021/11/08 01:52:00;;;;;;;3.40;3.00;;;;;;;8.60;100.00;98833.22;5022484;28;20061;-56
2021/11/08 01:54:27;;;;;;;4.10;3.70;;;;;;;8.68;100.00;98828.03;5007939;28;20037;-53
2021/11/08 01:56:54;;;;;;;3.70;2.90;;;;;;;8.70;100.00;98832.25;5020172;28;20373;-57
2021/11/08 01:59:22;;;;;;;4.00;3.10;;;;;;;8.70;100.00;98828.84;5007039;28;20035;-55
2021/11/08 02:01:47;;;;;;;3.43;2.97;;;;;;;8.67;100.00;98836.56;5016496;28;20040;-57
2021/11/08 02:04:13;;;;;;;2.97;2.57;;;;;;;8.63;100.00;98843.41;5011564;28;20543;-57
2021/11/08 02:06:38;;;;;;;4.57;2.47;;;;;;;8.61;100.00;98826.41;5015001;28;20033;-56
2021/11/08 02:09:05;;;;;;;4.53;2.90;;;;;;;8.60;100.00;98840.03;5018096;28;20022;-52
2021/11/08 02:11:35;;;;;;;3.50;2.90;;;;;;;8.65;100.00;98841.69;5009651;28;20084;-55
2021/11/08 02:14:01;;;;;;;2.57;2.30;;;;;;;8.65;100.00;98848.53;5017784;28;20113;-55
2021/11/08 02:16:27;;;;;;;3.07;2.70;;;;;;;8.62;100.00;98833.19;5011799;28;20053;-55
2021/11/08 02:18:52;;;;;;;3.23;2.93;;;;;;;8.61;100.00;98837.44;5016634;28;20430;-53
2021/11/08 02:21:18;;;;;;;2.40;2.20;;;;;;;8.60;100.00;98837.47;5012626;28;20029;-56
2021/11/08 02:23:47;;;;;;;2.50;2.13;;;;;;;8.62;100.00;98843.41;5015129;28;20354;-53
2021/11/08 02:26:16;;;;;;;4.07;2.47;;;;;;;8.59;100.00;98849.41;5014236;28;20080;-54
2021/11/08 02:28:46;;;;;;;2.40;2.20;;;;;;;8.60;100.00;98857.94;5013980;28;20038;-54
2021/11/08 02:31:19;;;;;;;3.50;2.63;;;;;;;8.62;100.00;98856.19;5011993;28;20030;-54
2021/11/08 02:33:46;;;;;;;2.97;2.67;;;;;;;8.55;100.00;98862.22;5009466;28;20029;-57
2021/11/08 02:36:12;;;;;;;2.80;2.50;;;;;;;8.41;100.00;98856.34;5013473;28;20034;-54
2021/11/08 02:38:42;;;;;;;3.97;2.30;;;;;;;8.45;100.00;98860.56;5015883;28;20092;-55
2021/11/08 02:41:08;;;;;;;3.27;2.87;;;;;;;8.49;100.00;98857.13;5008416;28;20037;-57
2021/11/08 02:43:35;;;;;;;3.37;2.63;;;;;;;8.55;100.00;98864.78;5015324;28;20057;-57
2021/11/08 02:46:25;;;;;;;2.87;2.60;;;;;;;8.56;100.00;98863.91;5005181;28;20362;-53
2021/11/08 02:48:52;;;;;;;3.27;2.80;;;;;;;8.57;100.00;98863.88;5010194;28;20060;-55
2021/11/08 02:51:23;;;;;;;2.80;2.50;;;;;;;8.56;100.00;98867.31;5010664;28;20036;-53
2021/11/08 02:53:54;;;;;;;3.80;3.40;;;;;;;8.55;100.00;98868.19;5008284;28;20049;-55
2021/11/08 02:56:20;;;;;;;4.43;2.87;;;;;;;8.57;100.00;98879.22;5005530;28;20188;-55
2021/11/08 02:58:46;;;;;;;3.80;3.00;;;;;;;8.61;100.00;98869.84;5005022;28;20508;-56
2021/11/08 03:01:17;;;;;;;4.03;3.67;;;;;;;8.59;100.00;98872.41;5003376;28;20034;-53
2021/11/08 03:03:46;;;;;;;4.00;3.07;;;;;;;8.56;100.00;98863.91;5004384;28;20391;-54
2021/11/08 03:06:20;;;;;;;5.40;3.40;;;;;;;8.58;100.00;98877.50;5004033;28;20044;-52
2021/11/08 03:08:46;;;;;;;3.27;2.97;;;;;;;8.54;100.00;98863.06;5007376;28;20030;-53
2021/11/08 03:11:12;;;;;;;4.27;3.27;;;;;;;8.53;100.00;98867.31;5008314;28;20025;-53
2021/11/08 03:13:40;;;;;;;5.23;3.20;;;;;;;8.50;100.00;98863.94;5007429;28;20037;-52
2021/11/08 03:18:39;;;;;;;4.90;3.50;;;;;;;8.49;100.00;98847.75;5009370;28;20057;-54
2021/11/08 03:21:14;;;;;;;6.27;3.83;;;;;;;8.45;100.00;98838.44;5015225;28;20056;-55
2021/11/08 03:23:40;;;;;;;6.85;3.90;;;;;;;8.50;100.00;98846.91;5008521;28;20061;-57
2021/11/08 03:28:58;;;;;;;5.17;3.67;;;;;;;8.46;100.00;98855.47;4984311;28;20461;-56
2021/11/08 03:31:25;;;;;;;5.83;4.57;;;;;;;8.46;100.00;98846.94;4987589;28;20069;-56
2021/11/08 03:33:52;;;;;;;3.97;3.47;;;;;;;8.36;100.00;98846.16;4985465;28;20053;-54
2021/11/08 03:36:17;;;;;;;4.60;3.77;;;;;;;8.35;100.00;98838.53;4989347;28;20038;-55
2021/11/08 03:38:43;;;;;;;5.10;3.27;;;;;;;8.33;100.00;98853.84;4973391;28;20041;-57
2021/11/08 03:41:09;;;;;;;6.03;4.07;;;;;;;8.33;100.00;98847.88;4983191;28;20066;-57
2021/11/08 03:43:35;;;;;;;5.27;3.20;;;;;;;8.22;100.00;98846.22;4989850;28;20062;-55
2021/11/08 03:46:03;;;;;;;6.73;3.97;;;;;;;8.25;100.00;98858.13;4989449;28;20089;-53
2021/11/08 03:48:29;;;;;;;5.27;3.90;;;;;;;8.18;100.00;98849.66;4993983;28;20381;-55
2021/11/08 03:50:55;;;;;;;4.10;3.40;;;;;;;8.21;100.00;98849.63;4989713;28;20033;-56
2021/11/08 03:53:21;;;;;;;5.53;3.50;;;;;;;8.24;100.00;98859.81;4989681;28;20092;-56
2021/11/08 03:55:47;;;;;;;4.00;3.27;;;;;;;8.24;100.00;98859.81;4986810;28;20108;-56
2021/11/08 03:58:13;;;;;;;5.43;3.60;;;;;;;8.18;100.00;98865.00;4989183;28;20039;-54
2021/11/08 04:00:41;;;;;;;7.10;3.73;;;;;;;8.17;100.00;98870.94;4985587;28;20034;-56
2021/11/08 04:03:07;;;;;;;7.13;4.30;;;;;;;8.21;100.00;98870.06;4988886;28;20041;-55
2021/11/08 04:05:35;;;;;;;4.57;3.67;;;;;;;8.21;100.00;98867.50;4999082;28;20045;-56
2021/11/08 04:08:05;;;;;;;6.53;3.90;;;;;;;8.16;100.00;98870.94;5014526;28;20037;-56
2021/11/08 04:10:31;;;;;;;6.53;4.27;;;;;;;8.17;100.00;98873.50;5016342;28;20041;-56
2021/11/08 04:13:03;;;;;;;6.57;4.30;;;;;;;8.22;100.00;98868.38;5021292;28;20037;-56
2021/11/08 04:15:33;;;;;;;7.00;4.13;;;;;;;8.28;100.00;98886.19;5013674;28;20036;-56
2021/11/08 04:17:59;;;;;;;5.40;4.00;;;;;;;8.16;100.00;98884.56;5010941;28;20030;-55
2021/11/08 04:20:25;;;;;;;5.40;4.23;;;;;;;8.18;100.00;98890.53;5011497;28;20037;-54
2021/11/08 04:22:52;;;;;;;5.67;3.57;;;;;;;8.20;100.00;98888.78;5014328;28;20460;-53
2021/11/08 04:25:22;;;;;;;4.40;3.83;;;;;;;8.18;100.00;98897.34;5009145;28;20041;-55
2021/11/08 04:27:47;;;;;;;4.37;3.80;;;;;;;8.13;100.00;98902.47;5011231;28;20036;-54
2021/11/08 04:30:14;;;;;;;4.97;3.93;;;;;;;8.18;100.00;98905.00;5015152;28;20026;-57
2021/11/08 04:35:25;;;;;;;5.73;3.57;;;;;;;8.22;100.00;98912.63;5016635;28;20049;-54
2021/11/08 04:44:06;;;;;;;5.90;3.90;;;;;;;8.13;100.00;98897.34;4956273;28;20050;-53
2021/11/08 05:21:30;;;;;;;5.57;3.83;;;;;;;8.13;100.00;98925.44;5013964;28;20387;-56
2021/11/08 05:31:46;;;;;;;6.60;3.10;;;;;;;8.15;100.00;98948.41;5007444;28;20060;-56
2021/11/08 05:34:14;;;;;;;5.17;3.47;;;;;;;8.05;100.00;98954.41;5006482;28;20034;-57
2021/11/08 05:36:40;;;;;;;5.80;3.43;;;;;;;8.10;100.00;98958.66;5004930;28;20038;-56
2021/11/08 05:39:06;;;;;;;4.07;3.00;;;;;;;8.10;100.00;98980.78;5002845;28;20472;-56
2021/11/08 05:41:34;;;;;;;4.60;3.37;;;;;;;8.04;100.00;98984.22;5007407;28;20033;-56
2021/11/08 05:44:02;;;;;;;5.07;3.57;;;;;;;8.01;100.00;98991.88;5007420;28;20038;-54
2021/11/08 05:46:27;;;;;;;4.47;3.53;;;;;;;8.03;100.00;99000.38;5013663;28;20053;-54
2021/11/08 05:48:53;;;;;;;5.13;3.40;;;;;;;8.06;100.00;99015.66;5011001;28;20030;-54
2021/11/08 05:51:18;;;;;;;5.90;3.47;;;;;;;8.11;100.00;99011.41;5008542;28;20076;-56
2021/11/08 05:53:46;;;;;;;9.10;3.67;;;;;;;8.22;100.00;99014.78;5007078;28;20026;-56
2021/11/08 05:56:19;;;;;;;4.00;3.10;;;;;;;8.20;100.00;99006.28;5004822;28;20034;-55
2021/11/08 06:50:22;;;;;;;3.57;2.40;;;;;;;8.30;100.00;99093.13;5016827;28;20061;-54
2021/11/08 06:52:50;;;;;;;4.50;2.40;;;;;;;8.40;100.00;99082.03;5008532;28;20037;-56
2021/11/08 06:55:17;;;;;;;2.23;2.00;;;;;;;8.42;100.00;99096.50;5012041;28;20031;-56
2021/11/08 06:57:47;;;;;;;5.57;2.53;;;;;;;8.35;100.00;99109.28;5006091;28;20372;-56
2021/11/08 07:00:16;;;;;;;2.63;2.23;;;;;;;8.38;100.00;99124.59;5011144;28;20088;-57
2021/11/08 07:02:41;;;;;;;4.57;2.47;;;;;;;8.37;100.00;99130.56;5007498;28;20044;-59
2021/11/08 07:05:07;;;;;;;2.30;2.10;;;;;;;8.34;100.00;99135.69;5008822;28;20034;-56
2021/11/08 07:07:33;;;;;;;3.63;2.33;;;;;;;8.32;100.00;99142.53;5009140;28;20431;-54
2021/11/08 07:09:58;;;;;;;5.83;2.47;;;;;;;8.42;100.00;99145.03;5007575;28;20446;-56
2021/11/08 07:12:23;;;;;;;6.13;3.03;;;;;;;8.50;100.00;99150.13;5013527;28;20021;-54
2021/11/08 07:14:49;;;;;;;4.87;2.87;;;;;;;8.53;100.00;99158.63;5015546;28;20543;-54
2021/11/08 07:17:14;;;;;;;3.70;2.20;;;;;;;8.41;100.00;99153.53;5011129;28;20467;-55
2021/11/08 07:19:40;;;;;;;4.00;2.40;;;;;;;8.48;100.00;99154.41;5008713;28;20101;-53
2021/11/08 07:22:05;;;;;;;3.73;2.90;;;;;;;8.52;100.00;99148.44;5010340;28;20032;-54
2021/11/08 07:24:31;;;;;;;4.03;2.27;;;;;;;8.52;100.00;99158.66;5013831;28;20034;-52
2021/11/08 07:26:57;;;;;;;3.63;2.50;;;;;;;8.53;100.00;99161.19;5008509;28;20030;-54
2021/11/08 07:29:25;;;;;;;5.43;2.87;;;;;;;8.53;100.00;99152.69;5012672;28;20476;-53
2021/11/08 07:31:50;;;;;;;4.33;2.63;;;;;;;8.52;100.00;99158.66;5010545;28;20025;-52
2021/11/08 07:34:16;;;;;;;6.83;3.47;;;;;;;8.64;100.00;99161.16;5008191;28;20048;-56
2021/11/08 07:36:41;;;;;;;3.93;2.60;;;;;;;8.69;100.00;99162.88;5016691;28;20050;-56
2021/11/08 07:39:07;;;;;;;7.40;3.20;;;;;;;8.69;100.00;99160.31;5010935;28;20383;-56
2021/11/08 07:41:33;;;;;;;4.13;3.10;;;;;;;8.71;100.00;99160.28;5015632;28;20086;-55
2021/11/08 07:43:59;;;;;;;5.50;3.60;;;;;;;8.70;100.00;99158.56;5008457;28;20104;-56
2021/11/08 07:46:25;;;;;;;3.93;3.50;;;;;;;8.77;100.00;99150.06;5015329;28;20116;-56
2021/11/08 07:48:50;;;;;;;4.90;2.77;;;;;;;8.81;100.00;99144.06;5006149;28;20256;-56
2021/11/08 07:51:17;;;;;;;2.97;2.50;;;;;;;8.77;100.00;99138.97;5016034;28;20058;-58
2021/11/08 07:53:44;;;;;;;6.90;3.03;;;;;;;8.83;100.00;99142.34;5010861;28;20036;-56
2021/11/08 07:56:10;;;;;;;5.87;2.80;;;;;;;8.87;100.00;99135.53;5013699;28;20048;-55
2021/11/08 07:58:37;;;;;;;5.80;2.47;;;;;;;9.05;100.00;99148.22;5014011;28;20478;-58
2021/11/08 08:01:05;;;;;;;5.77;2.77;;;;;;;8.97;100.00;99142.28;5012796;28;20057;-58
2021/11/08 08:03:30;;;;;;;5.00;2.90;;;;;;;9.02;100.00;99143.13;5010133;28;20053;-57
2021/11/08 08:05:58;;;;;;;3.60;2.63;;;;;;;9.09;100.00;99144.78;5015619;28;20030;-57
2021/11/08 08:08:24;;;;;;;7.30;2.47;;;;;;;9.14;100.00;99145.63;5008566;28;20030;-57
2021/11/08 08:10:52;;;;;;;5.37;2.90;;;;;;;9.28;100.00;99138.75;5017015;28;20034;-55
2021/11/08 08:13:20;;;;;;;4.07;3.00;;;;;;;9.22;100.00;99137.91;5009690;28;20105;-56
2021/11/08 08:15:47;;;;;;;4.17;2.73;;;;;;;9.17;100.00;99128.53;5020134;28;20076;-57
2021/11/08 08:18:13;;;;;;;5.67;3.40;;;;;;;9.30;100.00;99125.91;5000455;28;20027;-54
2021/11/08 08:20:39;;;;;;;3.57;3.23;;;;;;;9.28;96.71;99133.63;5003092;28;20025;-56
2021/11/08 08:23:06;;;;;;;7.70;3.53;;;;;;;9.31;91.76;99148.94;4999620;28;20465;-56
2021/11/08 08:25:32;;;;;;;4.93;2.80;;;;;;;9.30;88.65;99147.25;5007203;28;20053;-56
2021/11/08 08:27:58;;;;;;;4.97;2.93;;;;;;;9.30;90.07;99152.34;5003160;28;20481;-55
2021/11/08 08:30:25;;;;;;;6.40;3.37;;;;;;;9.33;90.66;99160.03;5000522;28;20580;-55
2021/11/08 08:32:52;;;;;;;4.87;2.70;;;;;;;9.32;92.17;99160.88;5006718;28;20022;-57
2021/11/08 08:35:17;;;;;;;5.13;3.20;;;;;;;9.26;94.04;99168.59;5003658;28;20095;-56
2021/11/08 08:37:44;;;;;;;8.23;3.03;;;;;;;9.28;97.46;99174.56;5008251;28;20022;-56
2021/11/08 08:40:09;;;;;;;5.73;3.37;;;;;;;9.36;94.41;99182.19;5014159;28;20057;-55
2021/11/08 08:42:35;;;;;;;3.87;2.87;;;;;;;9.36;94.61;99175.38;5000268;28;20124;-55
2021/11/08 08:45:01;;;;;;;6.80;3.80;;;;;;;9.46;93.23;99186.41;5006259;28;20036;-53
2021/11/08 08:47:27;;;;;;;4.23;3.20;;;;;;;9.41;94.72;99183.03;5009296;28;20472;-54
2021/11/08 08:49:52;;;;;;;6.70;3.10;;;;;;;9.33;95.78;99187.31;5004880;28;20037;-56
2021/11/08 08:52:19;;;;;;;6.67;3.90;;;;;;;9.31;96.96;99196.72;5008759;28;20026;-56
2021/11/08 08:54:45;;;;;;;6.07;3.23;;;;;;;9.35;96.82;99200.94;5009480;28;20034;-55
2021/11/08 08:57:10;;;;;;;4.17;2.97;;;;;;;9.22;97.54;99204.41;5007775;28;20117;-55
2021/11/08 08:59:37;;;;;;;6.97;3.87;;;;;;;9.22;96.48;99204.41;5010960;28;20113;-55
2021/11/08 09:02:04;;;;;;;3.47;3.17;;;;;;;9.29;95.74;99199.28;5009866;28;20392;-57
2021/11/08 09:04:30;;;;;;;6.30;3.53;;;;;;;9.31;96.30;99201.81;5011934;28;20348;-56
2021/11/08 09:06:57;;;;;;;4.23;3.03;;;;;;;9.38;95.59;99206.91;5016271;28;20083;-56
2021/11/08 09:09:23;;;;;;;5.80;3.17;;;;;;;9.42;94.18;99202.63;5015451;28;20084;-59
2021/11/08 09:11:48;;;;;;;9.83;4.03;;;;;;;9.43;93.41;99217.09;5014451;28;20480;-58
2021/11/08 09:14:14;;;;;;;6.90;2.97;;;;;;;9.33;93.32;99212.91;5009558;28;20029;-60
2021/11/08 09:16:40;;;;;;;4.10;3.03;;;;;;;9.44;93.73;99208.59;5013684;28;20033;-59
2021/11/08 09:19:05;;;;;;;4.67;3.20;;;;;;;9.47;90.36;99211.97;5007589;28;20046;-59
2021/11/08 09:21:32;;;;;;;7.33;3.10;;;;;;;9.41;90.58;99221.41;5013684;28;20037;-58
2021/11/08 09:23:59;;;;;;;5.53;2.90;;;;;;;9.52;88.94;99223.03;5008943;28;20034;-57
2021/11/08 09:26:29;;;;;;;10.03;3.60;;;;;;;9.64;87.32;99220.41;5009907;28;20385;-55
2021/11/08 09:28:54;;;;;;;6.03;2.97;;;;;;;9.73;85.37;99223.78;5011938;28;20041;-56
2021/11/08 09:31:21;;;;;;;7.63;3.13;;;;;;;9.75;84.81;99225.47;5012755;28;20022;-57
2021/11/08 09:33:52;;;;;;;5.10;3.20;;;;;;;9.92;84.03;99228.78;5017982;28;20025;-59
2021/11/08 09:36:17;;;;;;;8.70;3.03;;;;;;;10.07;81.82;99231.22;5014268;28;20026;-55
2021/11/08 09:38:55;;;;;;;7.50;3.40;;;;;;;10.26;80.02;99237.09;5017071;28;20037;-55
2021/11/08 09:41:24;;;;;;;7.20;3.13;;;;;;;10.25;78.40;99240.50;5014567;28;20041;-54
2021/11/08 09:43:52;;;;;;;5.63;2.93;;;;;;;10.19;78.98;99232.00;5017029;28;20121;-56
2021/11/08 09:46:18;;;;;;;4.80;3.33;;;;;;;10.32;77.87;99238.75;5015265;28;20515;-55
2021/11/08 09:48:43;;;;;;;4.88;3.22;;;;;;;10.48;76.76;99242.91;5014986;28;20026;-55
2021/11/08 09:51:14;;;;;;;4.10;2.83;;;;;;;10.38;75.70;99247.25;5013079;28;20465;-58
2021/11/08 09:53:40;;;;;;;4.03;3.27;;;;;;;10.16;76.15;99235.47;5012971;28;20034;-57
2021/11/08 09:56:07;;;;;;;4.73;3.30;;;;;;;10.26;76.10;99231.13;5008208;28;20025;-57
2021/11/08 09:58:33;;;;;;;3.70;3.33;;;;;;;10.27;72.19;99235.41;5008650;28;20369;-58
2021/11/08 10:01:04;;;;;;;4.87;3.13;;;;;;;10.41;72.53;99236.97;5008527;28;20095;-54
2021/11/08 10:03:32;;;;;;;3.60;3.30;;;;;;;10.41;69.47;99229.28;5012972;28;20033;-57
2021/11/08 10:05:59;;;;;;;6.03;3.50;;;;;;;10.25;69.31;99229.41;5003420;28;20092;-58
2021/11/08 10:08:31;;;;;;;4.50;3.15;;;;;;;10.38;69.11;99238.69;5019408;28;20040;-59
2021/11/08 10:11:00;;;;;;;5.00;3.13;;;;;;;10.45;68.43;99230.09;5006711;28;20052;-58
2021/11/08 10:13:29;;;;;;;4.63;3.27;;;;;;;10.48;69.15;99224.97;5017673;28;20087;-55
2021/11/08 10:16:05;;;;;;;5.00;2.72;;;;;;;10.55;68.96;99234.28;5006762;28;20040;-57
2021/11/08 10:18:30;;;;;;;;;;;;;;;10.53;69.98;99233.44;5014735;28;20025;-57
2021/11/08 10:21:15;;;;;;;3.25;2.40;;;;;;;10.54;68.14;99232.56;5014771;28;19913;-59
2021/11/08 10:23:43;;;;;;;8.23;3.88;;;;;;;10.26;69.26;99231.13;5015624;28;20395;-55
2021/11/08 10:26:13;;;;;;;4.05;2.80;;;;;;;10.26;69.71;99226.84;5018216;28;20095;-56
2021/11/08 10:28:39;;;;;;;5.20;3.33;;;;;;;10.25;71.18;99239.66;5010013;28;20958;-56
2021/11/08 10:31:11;;;;;;;9.70;3.23;;;;;;;10.20;72.08;99228.59;5019373;28;20029;-57
2021/11/08 10:33:39;;;;;;;6.10;3.73;;;;;;;10.10;71.82;99231.19;5012006;28;20036;-56
2021/11/08 10:36:11;;;;;;;6.63;3.07;;;;;;;10.20;71.40;99220.91;5015390;28;20064;-57
2021/11/08 10:38:40;;;;;;;4.30;3.13;;;;;;;10.33;71.15;99223.38;5004675;28;20430;-59
2021/11/08 10:41:13;;;;;;;4.53;3.23;;;;;;;10.55;70.19;99221.47;5009631;28;20033;-59
2021/11/08 10:43:50;;;;;;;4.07;3.30;;;;;;;10.61;68.46;99216.25;5007800;28;20053;-58
2021/11/08 10:46:22;;;;;;;6.07;3.23;;;;;;;10.60;68.10;99216.28;5012698;28;20034;-58
2021/11/08 10:48:52;;;;;;;5.10;3.40;;;;;;;10.58;67.52;99221.41;5007682;28;20033;-59
2021/11/08 10:51:22;;;;;;;3.50;2.88;;;;;;;10.63;65.56;99222.22;5009697;28;20030;-58
2021/11/08 10:53:52;;;;;;;3.78;2.78;;;;;;;10.76;64.29;99215.25;5008852;28;20030;-58
2021/11/08 10:56:30;;;;;;;5.07;2.80;;;;;;;10.79;65.42;99218.66;5015406;28;20037;-58
2021/11/08 10:58:58;;;;;;;4.32;3.30;;;;;;;10.70;63.92;99212.75;5016440;28;20553;-54
2021/11/08 11:01:33;;;;;;;3.08;2.75;;;;;;;10.76;64.30;99218.69;5011223;28;20583;-57
2021/11/08 11:04:05;;;;;;;6.38;3.67;;;;;;;10.79;64.75;99208.38;5006961;28;20041;-58
2021/11/08 11:06:44;;;;;;;6.80;3.08;;;;;;;11.02;64.29;99205.56;5008539;28;20017;-56
2021/11/08 11:09:14;;;;;;;3.38;2.80;;;;;;;11.21;63.28;99204.47;5007386;28;20041;-55
2021/11/08 11:11:40;;;;;;;3.20;2.15;;;;;;;11.24;61.44;99204.47;5002831;28;20497;-55
2021/11/08 11:14:06;;;;;;;2.95;2.40;;;;;;;11.36;61.03;99198.31;5006847;28;20087;-58
2021/11/08 11:16:38;;;;;;;3.90;2.70;;;;;;;11.28;58.64;99192.44;5003721;28;20034;-58
2021/11/08 11:19:10;;;;;;;5.85;2.40;;;;;;;11.32;58.90;99182.09;5004934;28;20037;-57
2021/11/08 11:21:37;;;;;;;3.38;2.70;;;;;;;11.18;59.72;99181.41;5003899;28;20041;-57
2021/11/08 11:24:06;;;;;;;5.80;2.70;;;;;;;11.39;59.34;99186.28;5006301;28;20124;-58
2021/11/08 11:26:46;;;;;;;4.95;2.67;;;;;;;11.65;59.62;99195.34;5005963;28;20105;-57
2021/11/08 11:29:11;;;;;;;4.22;2.60;;;;;;;11.44;58.41;99196.50;5005770;28;20037;-59
2021/11/08 11:31:37;;;;;;;3.55;2.55;;;;;;;11.49;56.49;99196.44;5010967;28;20038;-58
2021/11/08 11:34:29;;;;;;;6.22;3.17;;;;;;;11.48;56.95;99193.00;5010084;28;20088;-56
2021/11/08 11:36:55;;;;;;;5.45;2.40;;;;;;;11.24;57.70;99193.34;5003801;28;20046;-58
2021/11/08 11:39:21;;;;;;;2.50;2.30;;;;;;;11.23;58.08;99189.06;5007745;28;20134;-56
2021/11/08 11:41:47;;;;;;;4.90;2.47;;;;;;;11.27;58.89;99193.28;5008620;28;20095;-59
2021/11/08 11:44:19;;;;;;;3.25;2.50;;;;;;;11.14;59.32;99199.44;5005573;28;20046;-58
2021/11/08 11:46:49;;;;;;;6.68;2.53;;;;;;;10.99;60.34;99191.06;5007342;28;20057;-56
2021/11/08 11:49:15;;;;;;;4.72;2.65;;;;;;;10.87;60.64;99191.19;5008158;28;20033;-56
2021/11/08 11:51:49;;;;;;;4.95;2.78;;;;;;;10.87;61.23;99190.34;5008186;28;20031;-57
2021/11/08 11:54:18;;;;;;;3.15;2.42;;;;;;;10.82;62.39;99184.44;5003432;28;20492;-59
2021/11/08 11:56:45;;;;;;;4.53;2.35;;;;;;;10.65;62.53;99181.19;5011126;28;20115;-56
2021/11/08 11:59:13;;;;;;;2.90;2.15;;;;;;;10.75;61.52;99175.94;5006461;28;20018;-55
2021/11/08 12:01:40;;;;;;;4.68;2.45;;;;;;;10.68;60.63;99173.47;5010734;28;20040;-58
2021/11/08 12:04:06;;;;;;;2.72;1.95;;;;;;;10.62;61.80;99165.81;5005952;28;20030;-58
2021/11/08 12:06:35;;;;;;;3.50;2.60;;;;;;;10.56;61.85;99164.19;5007346;28;20069;-59
2021/11/08 12:09:06;;;;;;;3.95;2.50;;;;;;;10.73;63.08;99164.88;5003614;28;20018;-59
2021/11/08 12:11:37;;;;;;;4.00;2.17;;;;;;;10.70;61.41;99172.56;5007063;28;20037;-59
2021/11/08 12:14:09;;;;;;;4.97;2.33;;;;;;;10.69;60.49;99176.03;5005811;28;20105;-59
2021/11/08 12:16:35;;;;;;;4.75;2.67;;;;;;;10.64;62.39;99153.84;5009123;28;20037;-55
2021/11/08 12:19:03;;;;;;;4.25;2.55;;;;;;;10.65;63.13;99155.56;5007543;28;20037;-60
2021/11/08 12:21:32;;;;;;;4.03;2.38;;;;;;;10.83;62.94;99158.75;5007598;28;20041;-55
2021/11/08 12:23:59;;;;;;;4.03;2.80;;;;;;;10.74;62.07;99158.00;5005391;28;20027;-59
2021/11/08 12:26:28;;;;;;;5.13;2.97;;;;;;;10.83;61.39;99147.63;5009203;28;20022;-56
2021/11/08 12:29:08;;;;;;;9.95;3.13;;;;;;;10.84;62.25;99145.06;5008022;28;20387;-56
2021/11/08 12:31:34;;;;;;;3.10;2.55;;;;;;;10.90;60.82;99150.13;5008444;28;20029;-56
2021/11/08 12:34:09;;;;;;;3.40;2.60;;;;;;;10.78;62.00;99145.13;5008370;28;20025;-58
2021/11/08 12:36:36;;;;;;;3.22;2.90;;;;;;;10.83;61.79;99145.94;5011468;28;20037;-58
2021/11/08 12:39:06;;;;;;;4.33;2.90;;;;;;;10.74;62.11;99137.47;5011636;28;20204;-59
2021/11/08 12:41:52;;;;;;;5.20;2.85;;;;;;;10.74;64.49;99137.47;5009293;28;20037;-60
2021/11/08 12:44:22;;;;;;;6.00;3.20;;;;;;;10.46;63.98;99137.81;5006518;28;20038;-56
2021/11/08 12:46:51;;;;;;;6.25;3.50;;;;;;;10.34;64.67;99144.75;5011565;28;20038;-59
2021/11/08 12:49:23;;;;;;;5.60;3.42;;;;;;;10.33;65.64;99131.09;5011413;28;20447;-59
2021/11/08 12:52:16;;;;;;;4.65;4.25;;;;;;;10.38;66.78;99136.19;5010045;28;20041;-58
2021/11/08 12:54:55;;;;;;;3.72;3.40;;;;;;;10.41;65.71;99141.28;4995188;28;20029;-58
2021/11/08 12:57:23;;;;;;;4.43;3.17;;;;;;;10.54;64.90;99132.59;5011762;28;20507;-59
2021/11/08 12:59:55;;;;;;;5.38;2.97;;;;;;;10.74;63.22;99116.97;5011052;28;20089;-55
2021/11/08 13:02:35;;;;;;;6.28;3.67;;;;;;;10.95;60.39;99126.97;5018803;28;20041;-56
2021/11/08 13:05:05;;;;;;;5.78;2.88;;;;;;;10.85;57.86;99130.53;5012081;28;20033;-58
2021/11/08 13:07:43;;;;;;;4.57;3.17;;;;;;;10.74;57.48;99128.06;5015020;28;20040;-58
2021/11/08 13:10:25;;;;;;;6.38;3.47;;;;;;;10.71;58.05;99133.25;5011281;28;20199;-59
2021/11/08 13:12:53;;;;;;;6.05;3.25;;;;;;;10.69;58.45;99137.56;5017769;28;20317;-59
2021/11/08 13:15:25;;;;;;;6.68;3.22;;;;;;;10.68;58.80;99135.00;5012023;28;20034;-61
2021/11/08 13:18:07;;;;;;;6.17;3.00;;;;;;;10.48;59.75;99148.88;5014271;28;20026;-59
2021/11/08 13:20:45;;;;;;;3.85;2.60;;;;;;;10.52;60.44;99142.84;5015958;28;20037;-60
2021/11/08 13:23:10;;;;;;;4.85;3.17;;;;;;;10.39;60.58;99151.56;5014610;28;20036;-58
2021/11/08 13:25:39;;;;;;;6.45;3.25;;;;;;;10.42;60.59;99153.22;5014555;28;20109;-58
2021/11/08 13:28:10;;;;;;;5.43;3.03;;;;;;;10.34;60.12;99155.88;5013465;28;20092;-58